Pillager, Minnesota
Current Conditions -  °F | °C
As of 1:54 PM on Monday 22 Dec 2014 (Local Time) from KSAZ Reporting Station
Drizzle Drizzle  
Wind Chill: 30°   Ceiling: 900
Heat Index: 36°   Visibility: 7mi
Dew Point: 34°   Wind: 7mph
Humidity: 93%   Direction: 110°ESE
Pressure: 29.55"   Gusts: NA
Location:  46.33°N, 94.47°W
Report Text: KSAZ 221954Z AUTO 11006KT 7SM -DZ OVC009 02/01 A2955 RMK AO2
Loading
Personal Weather Stations






























Interactive Weather Map New forecast layout! Learn more

10-Day Weather Forecast

Advertisements
Track Severe Weather on mobile